sensor_id;sensor_type;location;lat;lon;timestamp;pressure;altitude;pressure_sealevel;temperature;humidity
44751;BME280;30477;48.224;11.470;2023-12-28T00:01:07;96259.63;;;4.28;57.83
44751;BME280;30477;48.224;11.470;2023-12-28T00:03:32;96253.78;;;4.26;57.19
44751;BME280;30477;48.224;11.470;2023-12-28T00:05:57;96262.69;;;4.20;57.01
44751;BME280;30477;48.224;11.470;2023-12-28T00:08:23;96259.91;;;4.23;57.02
44751;BME280;30477;48.224;11.470;2023-12-28T00:10:48;96254.50;;;4.28;56.77
44751;BME280;30477;48.224;11.470;2023-12-28T00:13:13;96262.09;;;4.30;56.72
44751;BME280;30477;48.224;11.470;2023-12-28T00:15:39;96257.59;;;4.33;56.45
44751;BME280;30477;48.224;11.470;2023-12-28T00:18:04;96250.13;;;4.43;56.32
44751;BME280;30477;48.224;11.470;2023-12-28T00:20:29;96256.09;;;4.43;55.77
44751;BME280;30477;48.224;11.470;2023-12-28T00:22:55;96257.41;;;4.36;55.81
44751;BME280;30477;48.224;11.470;2023-12-28T00:25:20;96255.22;;;4.30;55.79
44751;BME280;30477;48.224;11.470;2023-12-28T00:27:45;96258.50;;;4.32;56.06
44751;BME280;30477;48.224;11.470;2023-12-28T00:30:11;96252.81;;;4.41;55.89
44751;BME280;30477;48.224;11.470;2023-12-28T00:32:36;96262.88;;;4.44;56.13
44751;BME280;30477;48.224;11.470;2023-12-28T00:35:02;96250.34;;;4.40;55.65
44751;BME280;30477;48.224;11.470;2023-12-28T00:37:27;96249.91;;;4.33;55.55
44751;BME280;30477;48.224;11.470;2023-12-28T00:39:53;96250.03;;;4.17;55.61
44751;BME280;30477;48.224;11.470;2023-12-28T00:42:18;96255.97;;;4.18;55.89
44751;BME280;30477;48.224;11.470;2023-12-28T00:44:44;96251.44;;;4.09;56.08
44751;BME280;30477;48.224;11.470;2023-12-28T00:47:09;96258.97;;;3.97;56.35
44751;BME280;30477;48.224;11.470;2023-12-28T00:49:36;96267.94;;;3.90;56.57
44751;BME280;30477;48.224;11.470;2023-12-28T00:52:01;96273.78;;;3.92;56.56
44751;BME280;30477;48.224;11.470;2023-12-28T00:54:27;96267.56;;;3.96;56.57
44751;BME280;30477;48.224;11.470;2023-12-28T00:56:52;96263.72;;;4.03;56.64
44751;BME280;30477;48.224;11.470;2023-12-28T00:59:17;96266.63;;;4.12;56.44
44751;BME280;30477;48.224;11.470;2023-12-28T01:01:43;96268.28;;;4.13;56.27
44751;BME280;30477;48.224;11.470;2023-12-28T01:04:08;96267.81;;;4.20;56.23
44751;BME280;30477;48.224;11.470;2023-12-28T01:06:34;96279.59;;;4.23;55.88
44751;BME280;30477;48.224;11.470;2023-12-28T01:08:59;96277.13;;;4.21;56.09
44751;BME280;30477;48.224;11.470;2023-12-28T01:11:24;96280.22;;;4.26;55.96
44751;BME280;30477;48.224;11.470;2023-12-28T01:13:51;96292.75;;;4.31;55.62
44751;BME280;30477;48.224;11.470;2023-12-28T01:16:17;96285.97;;;4.30;55.51
44751;BME280;30477;48.224;11.470;2023-12-28T01:18:42;96296.22;;;4.30;55.47
44751;BME280;30477;48.224;11.470;2023-12-28T01:21:08;96300.63;;;4.28;55.32
44751;BME280;30477;48.224;11.470;2023-12-28T01:23:33;96304.84;;;4.29;55.38
44751;BME280;30477;48.224;11.470;2023-12-28T01:25:59;96309.66;;;4.34;55.12
44751;BME280;30477;48.224;11.470;2023-12-28T01:28:25;96311.03;;;4.39;54.89
44751;BME280;30477;48.224;11.470;2023-12-28T01:30:50;96308.44;;;4.54;54.44
44751;BME280;30477;48.224;11.470;2023-12-28T01:33:16;96309.69;;;4.61;54.11
44751;BME280;30477;48.224;11.470;2023-12-28T01:35:41;96308.75;;;4.62;53.56
44751;BME280;30477;48.224;11.470;2023-12-28T01:38:07;96302.88;;;4.60;53.48
44751;BME280;30477;48.224;11.470;2023-12-28T01:40:32;96311.03;;;4.66;53.32
44751;BME280;30477;48.224;11.470;2023-12-28T01:42:58;96307.25;;;4.72;52.85
44751;BME280;30477;48.224;11.470;2023-12-28T01:45:23;96314.94;;;4.72;52.59
44751;BME280;30477;48.224;11.470;2023-12-28T01:47:49;96311.84;;;4.67;52.54
44751;BME280;30477;48.224;11.470;2023-12-28T01:50:16;96313.78;;;4.63;52.35
44751;BME280;30477;48.224;11.470;2023-12-28T01:52:42;96311.50;;;4.59;52.27
44751;BME280;30477;48.224;11.470;2023-12-28T01:55:07;96318.47;;;4.57;52.28
44751;BME280;30477;48.224;11.470;2023-12-28T01:57:34;96325.66;;;4.52;52.49
44751;BME280;30477;48.224;11.470;2023-12-28T02:00:00;96323.56;;;4.44;52.59
44751;BME280;30477;48.224;11.470;2023-12-28T02:02:27;96328.25;;;4.37;52.82
44751;BME280;30477;48.224;11.470;2023-12-28T02:04:53;96323.72;;;4.41;52.49
44751;BME280;30477;48.224;11.470;2023-12-28T02:07:20;96322.63;;;4.45;52.62
44751;BME280;30477;48.224;11.470;2023-12-28T02:09:45;96319.25;;;4.44;52.46
44751;BME280;30477;48.224;11.470;2023-12-28T02:12:11;96310.59;;;4.33;52.36
44751;BME280;30477;48.224;11.470;2023-12-28T02:14:37;96297.16;;;4.29;52.56
44751;BME280;30477;48.224;11.470;2023-12-28T02:17:20;96310.97;;;4.26;52.82
44751;BME280;30477;48.224;11.470;2023-12-28T02:19:52;96297.88;;;4.31;52.44
44751;BME280;30477;48.224;11.470;2023-12-28T02:22:19;96305.47;;;4.33;52.24
44751;BME280;30477;48.224;11.470;2023-12-28T02:25:08;96306.09;;;4.36;52.27
44751;BME280;30477;48.224;11.470;2023-12-28T02:27:36;96302.25;;;4.43;51.99
44751;BME280;30477;48.224;11.470;2023-12-28T02:30:04;96306.25;;;4.47;51.86
44751;BME280;30477;48.224;11.470;2023-12-28T02:35:27;96308.28;;;4.28;51.83
44751;BME280;30477;48.224;11.470;2023-12-28T02:37:56;96314.19;;;4.16;52.04
44751;BME280;30477;48.224;11.470;2023-12-28T02:40:23;96317.66;;;4.15;52.33
44751;BME280;30477;48.224;11.470;2023-12-28T02:42:49;96309.34;;;4.11;52.30
44751;BME280;30477;48.224;11.470;2023-12-28T02:45:15;96312.28;;;4.05;52.52
44751;BME280;30477;48.224;11.470;2023-12-28T02:47:40;96312.56;;;4.00;52.79
44751;BME280;30477;48.224;11.470;2023-12-28T02:50:06;96310.19;;;3.97;52.88
44751;BME280;30477;48.224;11.470;2023-12-28T02:52:32;96300.41;;;4.04;52.85
44751;BME280;30477;48.224;11.470;2023-12-28T02:54:57;96304.03;;;4.14;52.63
44751;BME280;30477;48.224;11.470;2023-12-28T02:57:22;96298.44;;;4.22;52.37
44751;BME280;30477;48.224;11.470;2023-12-28T02:59:47;96294.59;;;4.29;52.45
44751;BME280;30477;48.224;11.470;2023-12-28T03:02:13;96285.59;;;4.36;51.87
44751;BME280;30477;48.224;11.470;2023-12-28T03:04:38;96291.78;;;4.46;51.73
44751;BME280;30477;48.224;11.470;2023-12-28T03:07:04;96283.78;;;4.51;51.45
44751;BME280;30477;48.224;11.470;2023-12-28T03:09:30;96280.03;;;4.57;51.39
44751;BME280;30477;48.224;11.470;2023-12-28T03:11:55;96280.53;;;4.62;50.98
44751;BME280;30477;48.224;11.470;2023-12-28T03:14:20;96279.34;;;4.67;50.60
44751;BME280;30477;48.224;11.470;2023-12-28T03:16:46;96278.66;;;4.78;50.37
44751;BME280;30477;48.224;11.470;2023-12-28T03:19:11;96284.66;;;4.92;50.07
44751;BME280;30477;48.224;11.470;2023-12-28T03:21:40;96284.09;;;4.86;49.69
44751;BME280;30477;48.224;11.470;2023-12-28T03:24:06;96281.41;;;4.75;49.71
44751;BME280;30477;48.224;11.470;2023-12-28T03:26:31;96275.41;;;4.62;49.94
44751;BME280;30477;48.224;11.470;2023-12-28T03:28:57;96268.88;;;4.58;50.19
44751;BME280;30477;48.224;11.470;2023-12-28T03:31:22;96282.38;;;4.60;50.32
44751;BME280;30477;48.224;11.470;2023-12-28T03:33:48;96286.81;;;4.58;50.04
44751;BME280;30477;48.224;11.470;2023-12-28T03:36:20;96294.50;;;4.58;50.17
44751;BME280;30477;48.224;11.470;2023-12-28T03:38:45;96287.25;;;4.37;50.43
44751;BME280;30477;48.224;11.470;2023-12-28T03:41:19;96287.81;;;4.28;50.94
44751;BME280;30477;48.224;11.470;2023-12-28T03:43:45;96288.00;;;4.25;51.08
44751;BME280;30477;48.224;11.470;2023-12-28T03:46:11;96297.53;;;4.23;51.15
44751;BME280;30477;48.224;11.470;2023-12-28T03:48:37;96299.94;;;4.12;51.35
44751;BME280;30477;48.224;11.470;2023-12-28T03:51:03;96295.00;;;3.94;51.50
44751;BME280;30477;48.224;11.470;2023-12-28T03:53:28;96301.44;;;3.73;52.17
44751;BME280;30477;48.224;11.470;2023-12-28T03:55:53;96304.56;;;3.63;52.42
44751;BME280;30477;48.224;11.470;2023-12-28T03:58:19;96310.22;;;3.69;52.81
44751;BME280;30477;48.224;11.470;2023-12-28T04:00:44;96315.59;;;3.78;52.91
44751;BME280;30477;48.224;11.470;2023-12-28T04:03:09;96314.75;;;3.78;53.07
44751;BME280;30477;48.224;11.470;2023-12-28T04:05:35;96323.94;;;3.68;53.13
44751;BME280;30477;48.224;11.470;2023-12-28T04:08:00;96329.22;;;3.64;53.47
44751;BME280;30477;48.224;11.470;2023-12-28T04:10:30;96330.88;;;3.65;53.73
44751;BME280;30477;48.224;11.470;2023-12-28T04:12:57;96332.50;;;3.66;53.44
44751;BME280;30477;48.224;11.470;2023-12-28T04:15:23;96331.50;;;3.69;53.44
44751;BME280;30477;48.224;11.470;2023-12-28T04:17:49;96336.16;;;3.62;53.68
44751;BME280;30477;48.224;11.470;2023-12-28T04:20:14;96333.31;;;3.53;53.78
44751;BME280;30477;48.224;11.470;2023-12-28T04:22:39;96340.00;;;3.55;53.66
44751;BME280;30477;48.224;11.470;2023-12-28T04:25:06;96334.31;;;3.50;53.87
44751;BME280;30477;48.224;11.470;2023-12-28T04:27:31;96332.56;;;3.51;54.27
44751;BME280;30477;48.224;11.470;2023-12-28T04:29:56;96336.88;;;3.50;54.23
44751;BME280;30477;48.224;11.470;2023-12-28T04:32:22;96335.78;;;3.54;54.07
44751;BME280;30477;48.224;11.470;2023-12-28T04:34:49;96333.22;;;3.40;54.07
44751;BME280;30477;48.224;11.470;2023-12-28T04:37:14;96335.78;;;3.40;54.40
44751;BME280;30477;48.224;11.470;2023-12-28T04:39:39;96333.41;;;3.37;54.44
44751;BME280;30477;48.224;11.470;2023-12-28T04:42:05;96331.00;;;3.34;54.55
44751;BME280;30477;48.224;11.470;2023-12-28T04:44:30;96335.22;;;3.35;54.80
44751;BME280;30477;48.224;11.470;2023-12-28T04:46:55;96325.88;;;3.34;54.99
44751;BME280;30477;48.224;11.470;2023-12-28T04:49:21;96330.38;;;3.30;54.85
44751;BME280;30477;48.224;11.470;2023-12-28T04:51:46;96335.78;;;3.25;55.00
44751;BME280;30477;48.224;11.470;2023-12-28T04:54:11;96326.63;;;3.21;54.94
44751;BME280;30477;48.224;11.470;2023-12-28T04:56:37;96328.53;;;3.18;54.88
44751;BME280;30477;48.224;11.470;2023-12-28T04:59:02;96323.34;;;3.19;55.32
44751;BME280;30477;48.224;11.470;2023-12-28T05:01:27;96335.78;;;3.25;55.07
44751;BME280;30477;48.224;11.470;2023-12-28T05:03:56;96329.25;;;2.90;55.38
44751;BME280;30477;48.224;11.470;2023-12-28T05:06:22;96340.06;;;2.95;55.79
44751;BME280;30477;48.224;11.470;2023-12-28T05:08:47;96337.31;;;2.98;55.77
44751;BME280;30477;48.224;11.470;2023-12-28T05:11:13;96343.63;;;2.92;55.47
44751;BME280;30477;48.224;11.470;2023-12-28T05:13:38;96357.91;;;2.80;55.79
44751;BME280;30477;48.224;11.470;2023-12-28T05:16:03;96373.22;;;2.80;56.14
44751;BME280;30477;48.224;11.470;2023-12-28T05:18:29;96368.13;;;2.80;55.97
44751;BME280;30477;48.224;11.470;2023-12-28T05:20:54;96366.31;;;2.82;56.23
44751;BME280;30477;48.224;11.470;2023-12-28T05:23:20;96366.13;;;2.85;55.93
44751;BME280;30477;48.224;11.470;2023-12-28T05:25:45;96365.22;;;2.87;56.45
44751;BME280;30477;48.224;11.470;2023-12-28T05:28:11;96358.38;;;2.87;56.39
44751;BME280;30477;48.224;11.470;2023-12-28T05:30:37;96364.31;;;2.88;56.43
44751;BME280;30477;48.224;11.470;2023-12-28T05:33:02;96363.56;;;2.85;56.43
44751;BME280;30477;48.224;11.470;2023-12-28T05:35:28;96369.59;;;2.84;56.46
44751;BME280;30477;48.224;11.470;2023-12-28T05:37:53;96364.66;;;2.81;56.47
44751;BME280;30477;48.224;11.470;2023-12-28T05:40:19;96365.41;;;2.83;56.71
44751;BME280;30477;48.224;11.470;2023-12-28T05:42:44;96356.91;;;2.83;56.63
44751;BME280;30477;48.224;11.470;2023-12-28T05:45:10;96360.88;;;2.73;56.78
44751;BME280;30477;48.224;11.470;2023-12-28T05:47:35;96361.72;;;2.73;56.77
44751;BME280;30477;48.224;11.470;2023-12-28T05:50:00;96360.03;;;2.72;56.67
44751;BME280;30477;48.224;11.470;2023-12-28T05:52:28;96356.41;;;2.76;56.87
44751;BME280;30477;48.224;11.470;2023-12-28T05:54:53;96358.41;;;2.71;56.72
44751;BME280;30477;48.224;11.470;2023-12-28T05:57:21;96352.47;;;2.71;56.95
44751;BME280;30477;48.224;11.470;2023-12-28T05:59:46;96356.00;;;2.68;56.93
44751;BME280;30477;48.224;11.470;2023-12-28T06:02:12;96356.81;;;2.69;57.21
44751;BME280;30477;48.224;11.470;2023-12-28T06:04:37;96349.00;;;2.72;57.14
44751;BME280;30477;48.224;11.470;2023-12-28T06:07:03;96352.97;;;2.77;57.03
44751;BME280;30477;48.224;11.470;2023-12-28T06:09:29;96354.25;;;2.84;56.76
44751;BME280;30477;48.224;11.470;2023-12-28T06:11:54;96357.13;;;2.94;56.60
44751;BME280;30477;48.224;11.470;2023-12-28T06:14:20;96341.34;;;3.02;56.00
44751;BME280;30477;48.224;11.470;2023-12-28T06:16:45;96338.03;;;3.16;55.60
44751;BME280;30477;48.224;11.470;2023-12-28T06:19:10;96344.88;;;3.30;55.39
44751;BME280;30477;48.224;11.470;2023-12-28T06:21:37;96344.38;;;3.39;54.66
44751;BME280;30477;48.224;11.470;2023-12-28T06:24:03;96339.97;;;3.27;54.41
44751;BME280;30477;48.224;11.470;2023-12-28T06:26:28;96335.38;;;3.17;54.86
44751;BME280;30477;48.224;11.470;2023-12-28T06:28:54;96343.28;;;3.43;54.33
44751;BME280;30477;48.224;11.470;2023-12-28T06:31:19;96345.50;;;3.63;53.63
44751;BME280;30477;48.224;11.470;2023-12-28T06:33:44;96352.97;;;3.52;53.11
44751;BME280;30477;48.224;11.470;2023-12-28T06:36:11;96349.66;;;3.36;53.49
44751;BME280;30477;48.224;11.470;2023-12-28T06:38:37;96356.97;;;3.28;53.67
44751;BME280;30477;48.224;11.470;2023-12-28T06:41:02;96354.56;;;3.24;53.69
44751;BME280;30477;48.224;11.470;2023-12-28T06:43:34;96356.56;;;3.19;53.75
44751;BME280;30477;48.224;11.470;2023-12-28T06:46:00;96356.13;;;3.27;53.62
44751;BME280;30477;48.224;11.470;2023-12-28T06:48:25;96358.31;;;3.33;53.39
44751;BME280;30477;48.224;11.470;2023-12-28T06:50:51;96361.91;;;3.31;53.41
44751;BME280;30477;48.224;11.470;2023-12-28T06:53:16;96359.72;;;3.39;53.10
44751;BME280;30477;48.224;11.470;2023-12-28T06:55:42;96362.00;;;3.43;53.10
44751;BME280;30477;48.224;11.470;2023-12-28T06:58:07;96355.50;;;3.38;52.88
44751;BME280;30477;48.224;11.470;2023-12-28T07:00:32;96356.59;;;3.34;53.28
44751;BME280;30477;48.224;11.470;2023-12-28T07:02:58;96357.50;;;3.33;53.48
44751;BME280;30477;48.224;11.470;2023-12-28T07:05:23;96350.50;;;3.36;53.58
44751;BME280;30477;48.224;11.470;2023-12-28T07:07:48;96357.53;;;3.47;53.61
44751;BME280;30477;48.224;11.470;2023-12-28T07:10:14;96351.88;;;3.56;53.36
44751;BME280;30477;48.224;11.470;2023-12-28T07:12:39;96348.81;;;3.65;52.92
44751;BME280;30477;48.224;11.470;2023-12-28T07:15:04;96347.50;;;3.73;52.62
44751;BME280;30477;48.224;11.470;2023-12-28T07:17:30;96350.59;;;3.78;52.50
44751;BME280;30477;48.224;11.470;2023-12-28T07:19:55;96353.00;;;3.81;52.20
44751;BME280;30477;48.224;11.470;2023-12-28T07:22:21;96347.81;;;3.82;52.06
44751;BME280;30477;48.224;11.470;2023-12-28T07:24:46;96350.59;;;3.78;51.91
44751;BME280;30477;48.224;11.470;2023-12-28T07:27:11;96351.25;;;3.81;51.80
44751;BME280;30477;48.224;11.470;2023-12-28T07:29:37;96346.59;;;3.88;51.82
44751;BME280;30477;48.224;11.470;2023-12-28T07:32:02;96351.19;;;3.97;51.83
44751;BME280;30477;48.224;11.470;2023-12-28T07:34:29;96358.38;;;4.05;51.55
44751;BME280;30477;48.224;11.470;2023-12-28T07:36:54;96362.69;;;4.04;51.46
44751;BME280;30477;48.224;11.470;2023-12-28T07:39:19;96356.47;;;4.09;51.60
44751;BME280;30477;48.224;11.470;2023-12-28T07:41:45;96353.63;;;4.13;51.43
44751;BME280;30477;48.224;11.470;2023-12-28T07:44:10;96366.06;;;4.19;51.37
44751;BME280;30477;48.224;11.470;2023-12-28T07:46:35;96363.75;;;4.29;51.45
44751;BME280;30477;48.224;11.470;2023-12-28T07:49:00;96362.47;;;4.36;51.18
44751;BME280;30477;48.224;11.470;2023-12-28T07:51:26;96373.06;;;4.44;51.25
44751;BME280;30477;48.224;11.470;2023-12-28T07:53:51;96358.25;;;4.50;51.17
44751;BME280;30477;48.224;11.470;2023-12-28T07:56:16;96355.72;;;4.62;51.17
44751;BME280;30477;48.224;11.470;2023-12-28T07:58:42;96362.44;;;4.78;50.84
44751;BME280;30477;48.224;11.470;2023-12-28T08:01:10;96369.06;;;4.95;50.36
44751;BME280;30477;48.224;11.470;2023-12-28T08:03:36;96362.44;;;5.05;50.19
44751;BME280;30477;48.224;11.470;2023-12-28T08:06:02;96369.09;;;5.07;50.17
44751;BME280;30477;48.224;11.470;2023-12-28T08:08:27;96358.22;;;5.04;50.32
44751;BME280;30477;48.224;11.470;2023-12-28T08:10:53;96371.81;;;5.19;50.08
44751;BME280;30477;48.224;11.470;2023-12-28T08:13:18;96368.16;;;5.36;49.73
44751;BME280;30477;48.224;11.470;2023-12-28T08:15:43;96372.47;;;5.48;49.41
44751;BME280;30477;48.224;11.470;2023-12-28T08:18:11;96370.22;;;5.56;49.14
44751;BME280;30477;48.224;11.470;2023-12-28T08:20:36;96372.09;;;5.67;48.99
44751;BME280;30477;48.224;11.470;2023-12-28T08:23:02;96368.69;;;5.79;48.54
44751;BME280;30477;48.224;11.470;2023-12-28T08:25:27;96373.81;;;5.92;48.10
44751;BME280;30477;48.224;11.470;2023-12-28T08:27:52;96376.63;;;6.02;47.84
44751;BME280;30477;48.224;11.470;2023-12-28T08:30:17;96374.97;;;6.14;47.47
44751;BME280;30477;48.224;11.470;2023-12-28T08:32:43;96378.34;;;6.27;47.23
44751;BME280;30477;48.224;11.470;2023-12-28T08:35:08;96373.50;;;6.35;47.02
44751;BME280;30477;48.224;11.470;2023-12-28T08:37:33;96371.00;;;6.46;46.77
44751;BME280;30477;48.224;11.470;2023-12-28T08:39:59;96371.09;;;6.58;46.15
44751;BME280;30477;48.224;11.470;2023-12-28T08:42:24;96371.94;;;6.69;46.08
44751;BME280;30477;48.224;11.470;2023-12-28T08:44:50;96371.53;;;6.76;46.30
44751;BME280;30477;48.224;11.470;2023-12-28T08:47:15;96366.56;;;6.85;46.05
44751;BME280;30477;48.224;11.470;2023-12-28T08:49:40;96369.41;;;6.94;45.87
44751;BME280;30477;48.224;11.470;2023-12-28T08:52:06;96370.16;;;7.07;45.60
44751;BME280;30477;48.224;11.470;2023-12-28T08:54:31;96380.38;;;7.20;45.13
44751;BME280;30477;48.224;11.470;2023-12-28T08:56:57;96372.00;;;7.29;45.11
44751;BME280;30477;48.224;11.470;2023-12-28T08:59:22;96373.09;;;7.38;44.91
44751;BME280;30477;48.224;11.470;2023-12-28T09:01:47;96369.81;;;7.47;44.60
44751;BME280;30477;48.224;11.470;2023-12-28T09:04:13;96371.72;;;7.56;44.26
44751;BME280;30477;48.224;11.470;2023-12-28T09:06:39;96381.78;;;7.59;44.27
44751;BME280;30477;48.224;11.470;2023-12-28T09:09:04;96379.47;;;7.67;44.04
44751;BME280;30477;48.224;11.470;2023-12-28T09:11:31;96376.78;;;7.80;43.81
44751;BME280;30477;48.224;11.470;2023-12-28T09:13:56;96372.50;;;7.92;43.67
44751;BME280;30477;48.224;11.470;2023-12-28T09:16:21;96371.66;;;8.03;43.26
44751;BME280;30477;48.224;11.470;2023-12-28T09:18:47;96374.34;;;8.12;42.90
44751;BME280;30477;48.224;11.470;2023-12-28T09:21:12;96374.72;;;8.19;42.81
44751;BME280;30477;48.224;11.470;2023-12-28T09:23:38;96374.81;;;8.29;42.59
44751;BME280;30477;48.224;11.470;2023-12-28T09:26:04;96378.84;;;8.44;42.35
44751;BME280;30477;48.224;11.470;2023-12-28T09:28:31;96371.56;;;8.49;41.69
44751;BME280;30477;48.224;11.470;2023-12-28T09:30:57;96365.94;;;8.56;42.04
44751;BME280;30477;48.224;11.470;2023-12-28T09:33:22;96364.63;;;8.61;41.70
44751;BME280;30477;48.224;11.470;2023-12-28T09:35:49;96358.50;;;8.73;41.51
44751;BME280;30477;48.224;11.470;2023-12-28T09:38:15;96360.47;;;8.81;41.33
44751;BME280;30477;48.224;11.470;2023-12-28T09:40:43;96371.13;;;8.88;41.17
44751;BME280;30477;48.224;11.470;2023-12-28T09:43:21;96379.91;;;8.97;40.95
44751;BME280;30477;48.224;11.470;2023-12-28T09:45:47;96373.91;;;9.07;40.44
44751;BME280;30477;48.224;11.470;2023-12-28T09:48:15;96362.38;;;9.11;40.34
44751;BME280;30477;48.224;11.470;2023-12-28T09:50:42;96361.03;;;9.17;40.21
44751;BME280;30477;48.224;11.470;2023-12-28T09:53:07;96363.41;;;9.20;40.35
44751;BME280;30477;48.224;11.470;2023-12-28T09:55:35;96367.91;;;9.28;40.07
44751;BME280;30477;48.224;11.470;2023-12-28T09:58:03;96358.75;;;9.35;40.12
44751;BME280;30477;48.224;11.470;2023-12-28T10:00:31;96358.38;;;9.40;39.87
44751;BME280;30477;48.224;11.470;2023-12-28T10:02:56;96346.84;;;9.44;40.09
44751;BME280;30477;48.224;11.470;2023-12-28T10:05:21;96353.78;;;9.43;39.73
44751;BME280;30477;48.224;11.470;2023-12-28T10:07:47;96355.41;;;9.44;40.18
44751;BME280;30477;48.224;11.470;2023-12-28T10:10:13;96366.69;;;9.43;40.34
44751;BME280;30477;48.224;11.470;2023-12-28T10:12:38;96360.66;;;9.54;40.24
44751;BME280;30477;48.224;11.470;2023-12-28T10:15:05;96368.78;;;9.70;39.66
44751;BME280;30477;48.224;11.470;2023-12-28T10:17:33;96365.00;;;9.74;39.54
44751;BME280;30477;48.224;11.470;2023-12-28T10:19:59;96360.00;;;9.83;39.53
44751;BME280;30477;48.224;11.470;2023-12-28T10:22:30;96355.00;;;9.91;39.42
44751;BME280;30477;48.224;11.470;2023-12-28T10:24:55;96349.06;;;10.00;39.67
44751;BME280;30477;48.224;11.470;2023-12-28T10:27:20;96355.34;;;10.07;40.23
44751;BME280;30477;48.224;11.470;2023-12-28T10:29:46;96352.94;;;10.15;40.15
44751;BME280;30477;48.224;11.470;2023-12-28T10:32:11;96351.84;;;10.18;40.24
44751;BME280;30477;48.224;11.470;2023-12-28T10:34:36;96339.88;;;10.17;40.31
44751;BME280;30477;48.224;11.470;2023-12-28T10:37:02;96345.72;;;10.19;40.25
44751;BME280;30477;48.224;11.470;2023-12-28T10:39:31;96337.44;;;10.25;40.03
44751;BME280;30477;48.224;11.470;2023-12-28T10:41:59;96331.78;;;10.31;39.70
44751;BME280;30477;48.224;11.470;2023-12-28T10:44:31;96330.13;;;10.30;39.91
44751;BME280;30477;48.224;11.470;2023-12-28T10:47:01;96332.59;;;10.32;39.73
44751;BME280;30477;48.224;11.470;2023-12-28T10:49:30;96334.22;;;10.33;39.77
44751;BME280;30477;48.224;11.470;2023-12-28T10:51:59;96328.34;;;10.31;39.53
44751;BME280;30477;48.224;11.470;2023-12-28T10:54:44;96327.41;;;10.32;39.61
44751;BME280;30477;48.224;11.470;2023-12-28T10:57:21;96326.00;;;10.28;39.56
44751;BME280;30477;48.224;11.470;2023-12-28T11:00:13;96328.72;;;10.26;39.36
44751;BME280;30477;48.224;11.470;2023-12-28T11:02:45;96317.28;;;10.29;38.98
44751;BME280;30477;48.224;11.470;2023-12-28T11:05:15;96315.44;;;10.31;38.87
44751;BME280;30477;48.224;11.470;2023-12-28T11:07:41;96318.69;;;10.33;38.83
44751;BME280;30477;48.224;11.470;2023-12-28T11:10:06;96315.97;;;10.34;38.70
44751;BME280;30477;48.224;11.470;2023-12-28T11:12:33;96308.91;;;10.36;38.69
44751;BME280;30477;48.224;11.470;2023-12-28T11:14:59;96310.28;;;10.41;38.71
44751;BME280;30477;48.224;11.470;2023-12-28T11:17:25;96303.34;;;10.41;38.83
44751;BME280;30477;48.224;11.470;2023-12-28T11:19:52;96298.03;;;10.43;39.06
44751;BME280;30477;48.224;11.470;2023-12-28T11:22:19;96299.28;;;10.48;39.13
44751;BME280;30477;48.224;11.470;2023-12-28T11:24:46;96287.16;;;10.49;39.06
44751;BME280;30477;48.224;11.470;2023-12-28T11:27:11;96283.75;;;10.48;38.89
44751;BME280;30477;48.224;11.470;2023-12-28T11:29:38;96285.38;;;10.49;38.56
44751;BME280;30477;48.224;11.470;2023-12-28T11:32:03;96287.97;;;10.49;38.25
44751;BME280;30477;48.224;11.470;2023-12-28T11:34:31;96278.28;;;10.51;38.27
44751;BME280;30477;48.224;11.470;2023-12-28T11:37:00;96282.38;;;10.54;37.87
44751;BME280;30477;48.224;11.470;2023-12-28T11:39:35;96283.63;;;10.60;37.53
44751;BME280;30477;48.224;11.470;2023-12-28T11:42:02;96273.41;;;10.68;37.50
44751;BME280;30477;48.224;11.470;2023-12-28T11:44:37;96268.63;;;10.73;37.21
44751;BME280;30477;48.224;11.470;2023-12-28T11:47:14;96269.47;;;10.83;37.19
44751;BME280;30477;48.224;11.470;2023-12-28T11:49:40;96269.06;;;10.88;36.95
44751;BME280;30477;48.224;11.470;2023-12-28T11:52:06;96267.28;;;10.98;36.86
44751;BME280;30477;48.224;11.470;2023-12-28T11:54:32;96276.69;;;10.99;36.62
44751;BME280;30477;48.224;11.470;2023-12-28T11:56:57;96271.38;;;11.01;36.14
44751;BME280;30477;48.224;11.470;2023-12-28T11:59:22;96280.91;;;11.00;35.70
44751;BME280;30477;48.224;11.470;2023-12-28T12:01:54;96278.47;;;10.99;35.92
44751;BME280;30477;48.224;11.470;2023-12-28T12:04:20;96273.53;;;10.95;35.98
44751;BME280;30477;48.224;11.470;2023-12-28T12:06:46;96260.88;;;10.92;36.08
44751;BME280;30477;48.224;11.470;2023-12-28T12:09:12;96269.75;;;10.90;35.90
44751;BME280;30477;48.224;11.470;2023-12-28T12:11:38;96250.09;;;10.87;35.92
44751;BME280;30477;48.224;11.470;2023-12-28T12:14:08;96260.47;;;10.87;35.78
44751;BME280;30477;48.224;11.470;2023-12-28T12:16:35;96267.28;;;10.88;35.88
44751;BME280;30477;48.224;11.470;2023-12-28T12:19:00;96255.56;;;10.84;35.87
44751;BME280;30477;48.224;11.470;2023-12-28T12:21:25;96264.28;;;10.83;36.12
44751;BME280;30477;48.224;11.470;2023-12-28T12:23:52;96262.66;;;10.82;36.11
44751;BME280;30477;48.224;11.470;2023-12-28T12:26:20;96256.78;;;10.80;36.31
44751;BME280;30477;48.224;11.470;2023-12-28T12:28:46;96256.94;;;10.79;36.74
44751;BME280;30477;48.224;11.470;2023-12-28T12:31:12;96252.84;;;10.76;37.09
44751;BME280;30477;48.224;11.470;2023-12-28T12:33:39;96249.56;;;10.74;37.02
44751;BME280;30477;48.224;11.470;2023-12-28T12:36:06;96259.13;;;10.73;37.14
44751;BME280;30477;48.224;11.470;2023-12-28T12:38:31;96254.06;;;10.72;37.33
44751;BME280;30477;48.224;11.470;2023-12-28T12:40:58;96257.63;;;10.71;37.70
44751;BME280;30477;48.224;11.470;2023-12-28T12:43:23;96248.22;;;10.70;37.87
44751;BME280;30477;48.224;11.470;2023-12-28T12:45:49;96256.94;;;10.69;38.07
44751;BME280;30477;48.224;11.470;2023-12-28T12:48:14;96256.25;;;10.67;38.15
44751;BME280;30477;48.224;11.470;2023-12-28T12:50:40;96248.50;;;10.67;38.47
44751;BME280;30477;48.224;11.470;2023-12-28T12:53:05;96246.03;;;10.65;38.69
44751;BME280;30477;48.224;11.470;2023-12-28T12:55:31;96243.44;;;10.65;38.90